»·PEaware :: DCM875 KSAC-KMRY

DCM875 :: KSAC-KMRY

FLIGHT INFORMATION

Flight Status: Arrived
Operator: Unknown
More flights by this operator :: More flights under this callsign
Pilot: Skye D. (10623)
Aircraft: ECLIPSE 500
(EA50)
More flights by this aircraft type
Origin: KSAC Sacramento Executive
United States
Destination: KMRY Monterey Peninsula
United States
More flights between these airports :: More routes between these airports
Route: +MOD V111 SNS
File this flight plan on PilotEdge
Remarks:
Altitude:
(Current/Filed)
18,000ft
Speed:
(Current/Filed)
340kts
Departed: 04-Feb-18 09:58 AM
Arrived: 04-Feb-18 10:35 AM
Distance/Time
Traveled:
117nm/0:36
Distance/Time
To Go:
Arrived

Flight Plot

Page will automatically refresh every two minutes.

Flight plan parsing failed; only flown route is shown


Map Options




Map Legend


Flown Route
Filed Route
Departure Airport
Arrival Airport
Navaid (VOR, NDB)
Fix

Horizontal Profiles

Position Reports

Time Latitude Longitude Heading Altitude Ground
Speed
04-Feb-18 09:46 38.514719 -121.499263 46 26ft 0kts
04-Feb-18 09:47 38.514719 -121.499263 46 26ft 0kts
04-Feb-18 09:48 38.514719 -121.499263 46 26ft 0kts
04-Feb-18 09:49 38.514719 -121.499263 46 26ft 0kts
04-Feb-18 09:50 38.514719 -121.499263 46 26ft 0kts
04-Feb-18 09:51 38.514719 -121.499263 46 26ft 0kts
04-Feb-18 09:52 38.514719 -121.499263 46 26ft 0kts
04-Feb-18 09:53 38.514719 -121.499263 46 26ft 0kts
04-Feb-18 09:54 38.514719 -121.499263 46 26ft 0kts
04-Feb-18 09:55 38.514719 -121.499263 46 26ft 0kts
04-Feb-18 09:56 38.514719 -121.499263 46 26ft 0kts
04-Feb-18 09:57 38.514884 -121.499022 62 26ft 5kts
04-Feb-18 09:58 38.513839 -121.496669 125 26ft 6kts
04-Feb-18 09:59 38.513613 -121.496217 112 26ft 0kts
04-Feb-18 10:00 38.511434 -121.497202 211 26ft 25kts
04-Feb-18 10:01 38.506667 -121.501137 196 26ft 10kts
04-Feb-18 10:02 38.506192 -121.501090 164 26ft 0kts
04-Feb-18 10:03 38.505591 -121.500857 143 26ft 7kts
04-Feb-18 10:04 38.513397 -121.493894 35 140ft 116kts
04-Feb-18 10:05 38.520063 -121.458267 134 1867ft 171kts
04-Feb-18 10:06 38.473878 -121.442922 184 2494ft 244kts
04-Feb-18 10:07 38.413067 -121.458806 190 4464ft 262kts
04-Feb-18 10:08 38.357387 -121.471306 190 6287ft 271kts
04-Feb-18 10:09 38.295042 -121.484915 191 8081ft 278kts
04-Feb-18 10:10 38.225501 -121.499868 191 9795ft 287kts
04-Feb-18 10:11 38.152500 -121.515498 192 11418ft 292kts
04-Feb-18 10:12 38.081359 -121.530676 192 12831ft 296kts
04-Feb-18 10:13 38.010752 -121.545712 193 14083ft 300kts
04-Feb-18 10:14 37.940335 -121.560678 193 15243ft 302kts
04-Feb-18 10:15 37.874571 -121.574612 193 16186ft 305kts
04-Feb-18 10:16 37.805437 -121.589228 193 17086ft 309kts
04-Feb-18 10:17 37.728059 -121.605633 192 17941ft 314kts
04-Feb-18 10:18 37.659130 -121.620131 192 18208ft 321kts
04-Feb-18 10:19 37.583626 -121.635996 192 18209ft 339kts
04-Feb-18 10:20 37.517223 -121.649906 192 18191ft 340kts
04-Feb-18 10:21 37.444426 -121.665698 192 18146ft 341kts
04-Feb-18 10:22 37.372554 -121.680930 191 17330ft 337kts
04-Feb-18 10:23 37.302342 -121.695633 191 16105ft 331kts
04-Feb-18 10:24 37.235084 -121.709684 191 14911ft 326kts
04-Feb-18 10:25 37.168306 -121.723591 190 13708ft 321kts
04-Feb-18 10:26 37.102457 -121.737201 190 12492ft 299kts
04-Feb-18 10:27 37.041548 -121.746503 168 11016ft 289kts
04-Feb-18 10:28 36.983484 -121.696914 142 9250ft 284kts
04-Feb-18 10:29 36.931547 -121.647801 142 7577ft 276kts
04-Feb-18 10:30 36.877539 -121.621750 170 5999ft 267kts
04-Feb-18 10:31 36.819625 -121.609729 170 5004ft 227kts
04-Feb-18 10:32 36.772898 -121.601531 177 5055ft 203kts
04-Feb-18 10:33 36.725579 -121.607760 187 4841ft 213kts
04-Feb-18 10:34 36.680738 -121.621601 195 5190ft 192kts
04-Feb-18 10:35 36.634410 -121.642219 200 4986ft 194kts
04-Feb-18 10:36 36.591731 -121.673421 221 4656ft 200kts
04-Feb-18 10:37 36.559734 -121.720898 251 3247ft 187kts
04-Feb-18 10:38 36.562532 -121.772716 290 1755ft 155kts
04-Feb-18 10:39 36.576894 -121.814240 292 748ft 137kts
04-Feb-18 10:40 36.587681 -121.846516 292 259ft 56kts
04-Feb-18 10:41 36.588507 -121.850623 209 259ft 0kts
04-Feb-18 10:42 36.588161 -121.851617 251 259ft 6kts

Navigation Log

Ident Type
Flight plan parsing failed, navigation log unavailable